createdAt,value
2023-03-08T00:00:52.134Z,9.70
2023-03-08T00:04:34.822Z,9.30
2023-03-08T00:08:18.109Z,9.68
2023-03-08T00:11:59.892Z,8.98
2023-03-08T00:15:41.629Z,10.13
2023-03-08T00:19:23.388Z,7.20
2023-03-08T00:23:05.164Z,9.02
2023-03-08T00:26:47.001Z,9.98
2023-03-08T00:30:28.975Z,8.02
2023-03-08T00:34:10.857Z,11.98
2023-03-08T00:37:52.576Z,11.20
2023-03-08T00:41:34.401Z,9.38
2023-03-08T00:45:16.363Z,10.45
2023-03-08T00:48:58.756Z,8.20
2023-03-08T00:52:40.525Z,10.38
2023-03-08T00:56:22.382Z,9.52
2023-03-08T01:00:08.270Z,10.15
2023-03-08T01:03:50.239Z,12.30
2023-03-08T01:07:31.955Z,10.52
2023-03-08T01:11:22.612Z,12.77
2023-03-08T01:15:05.371Z,12.85
2023-03-08T01:18:47.483Z,14.32
2023-03-08T01:22:29.208Z,13.60
2023-03-08T01:26:16.946Z,15.25
2023-03-08T01:29:58.720Z,14.10
2023-03-08T01:33:41.484Z,16.27
2023-03-08T01:37:23.271Z,15.05
2023-03-08T01:41:06.887Z,14.48
2023-03-08T01:45:01.280Z,15.07
2023-03-08T01:49:13.660Z,16.70
2023-03-08T01:52:58.470Z,15.18
2023-03-08T01:56:42.516Z,13.93
2023-03-08T02:00:26.868Z,15.73
2023-03-08T02:04:10.239Z,18.23
2023-03-08T02:07:52.001Z,18.13
2023-03-08T02:11:35.527Z,17.27
2023-03-08T02:15:20.265Z,20.10
2023-03-08T02:19:10.887Z,16.13
2023-03-08T02:22:53.280Z,15.98
2023-03-08T02:26:37.229Z,15.52
2023-03-08T02:30:27.286Z,21.60
2023-03-08T02:34:09.121Z,15.05
2023-03-08T02:37:50.996Z,17.38
2023-03-08T02:41:32.734Z,16.13
2023-03-08T02:45:14.734Z,16.30
2023-03-08T02:48:56.471Z,18.70
2023-03-08T02:52:38.250Z,16.25
2023-03-08T02:56:20.009Z,18.35
2023-03-08T03:00:01.856Z,17.88
2023-03-08T03:03:43.623Z,16.92
2023-03-08T03:07:25.374Z,19.92
2023-03-08T03:11:12.982Z,21.42
2023-03-08T03:14:54.710Z,19.67
2023-03-08T03:18:36.512Z,22.00
2023-03-08T03:22:18.249Z,24.48
2023-03-08T03:26:08.692Z,23.98
2023-03-08T03:29:50.498Z,24.08
2023-03-08T03:33:32.255Z,27.27
2023-03-08T03:37:13.976Z,28.23
2023-03-08T03:41:07.305Z,23.85
2023-03-08T03:44:49.043Z,24.23
2023-03-08T03:48:30.839Z,24.90
2023-03-08T03:52:12.647Z,20.17
2023-03-08T03:55:54.428Z,21.85
2023-03-08T03:59:36.211Z,23.20
2023-03-08T04:03:18.035Z,21.08
2023-03-08T04:06:59.840Z,21.52
2023-03-08T04:10:41.675Z,25.65
2023-03-08T04:14:23.454Z,20.15
2023-03-08T04:18:05.253Z,22.17
2023-03-08T04:21:46.999Z,19.50
2023-03-08T04:25:28.742Z,26.13
2023-03-08T04:29:10.495Z,24.33
2023-03-08T04:32:52.223Z,22.05
2023-03-08T04:36:34.200Z,21.88
2023-03-08T04:40:16.000Z,20.27
2023-03-08T04:43:57.998Z,22.83
2023-03-08T04:47:39.740Z,19.88
2023-03-08T04:51:26.647Z,19.65
2023-03-08T04:55:08.638Z,22.40
2023-03-08T04:58:50.566Z,21.95
2023-03-08T05:02:33.526Z,22.42
2023-03-08T05:06:15.574Z,23.13
2023-03-08T05:09:57.326Z,19.92
2023-03-08T05:13:39.635Z,19.58
2023-03-08T05:17:21.734Z,24.38
2023-03-08T05:21:11.392Z,19.52
2023-03-08T05:24:53.644Z,19.20
2023-03-08T05:28:41.779Z,21.13
2023-03-08T05:32:23.555Z,19.80
2023-03-08T05:36:06.606Z,20.42
2023-03-08T05:39:48.636Z,18.40
2023-03-08T05:43:30.782Z,17.95
2023-03-08T05:47:12.719Z,16.23
2023-03-08T05:50:54.714Z,17.92
2023-03-08T05:54:36.534Z,16.27
2023-03-08T05:58:18.359Z,14.63
2023-03-08T06:02:00.207Z,18.75
2023-03-08T06:05:41.970Z,17.10
2023-03-08T06:09:23.720Z,17.38
2023-03-08T06:13:08.466Z,21.23
2023-03-08T06:16:50.317Z,22.15
2023-03-08T06:20:32.866Z,19.35
2023-03-08T06:24:14.670Z,20.25
2023-03-08T06:27:56.516Z,22.00
2023-03-08T06:31:38.277Z,20.98
2023-03-08T06:35:20.053Z,19.23
2023-03-08T06:39:02.245Z,20.42
2023-03-08T06:42:44.000Z,19.55
2023-03-08T06:46:25.789Z,18.85
2023-03-08T06:50:08.155Z,22.83
2023-03-08T06:53:49.930Z,18.92
2023-03-08T06:57:31.923Z,21.10
2023-03-08T07:01:14.201Z,19.35
2023-03-08T07:04:55.972Z,17.98
2023-03-08T07:08:39.592Z,20.63
2023-03-08T07:12:21.407Z,18.75
2023-03-08T07:16:11.510Z,23.00
2023-03-08T07:19:53.289Z,20.45
2023-03-08T07:23:35.030Z,21.55
2023-03-08T07:27:16.768Z,18.63
2023-03-08T07:30:58.845Z,23.45
2023-03-08T07:34:40.683Z,20.45
2023-03-08T07:38:22.461Z,23.52
2023-03-08T07:42:04.602Z,19.27
2023-03-08T07:45:46.353Z,21.73
2023-03-08T07:49:28.284Z,19.85
2023-03-08T07:53:10.013Z,21.55
2023-03-08T07:56:52.974Z,20.95
2023-03-08T08:00:34.807Z,17.85
2023-03-08T08:04:16.804Z,20.80
2023-03-08T08:07:58.613Z,18.35
2023-03-08T08:11:41.086Z,18.55
2023-03-08T08:15:25.285Z,15.90
2023-03-08T08:19:08.564Z,17.00
2023-03-08T08:22:53.275Z,17.38
2023-03-08T08:26:35.165Z,18.25
2023-03-08T08:30:17.273Z,16.17
2023-03-08T08:34:00.050Z,17.15
2023-03-08T08:37:41.890Z,17.73
2023-03-08T08:41:24.458Z,16.73
2023-03-08T08:45:06.830Z,15.65
2023-03-08T08:48:48.576Z,17.02
2023-03-08T08:52:30.636Z,17.02
2023-03-08T08:56:27.265Z,15.25
2023-03-08T09:00:10.762Z,14.13
2023-03-08T09:03:53.235Z,15.63
2023-03-08T09:07:36.113Z,15.05
2023-03-08T09:11:19.295Z,14.20
2023-03-08T09:15:01.238Z,17.02
2023-03-08T09:18:42.990Z,12.95
2023-03-08T09:22:26.799Z,12.63
2023-03-08T09:26:08.705Z,12.85
2023-03-08T09:29:50.701Z,15.32
2023-03-08T09:33:32.543Z,10.63
2023-03-08T09:37:14.400Z,13.05
2023-03-08T09:41:21.759Z,10.93
2023-03-08T09:45:16.236Z,9.52
2023-03-08T09:49:01.125Z,9.38
2023-03-08T09:52:54.418Z,9.35
2023-03-08T09:57:01.957Z,8.07
2023-03-08T10:00:44.474Z,7.32
2023-03-08T10:04:35.699Z,6.05
2023-03-08T10:08:26.301Z,7.82
2023-03-08T10:12:32.109Z,5.53
2023-03-08T10:16:27.096Z,5.35
2023-03-08T10:20:27.243Z,5.25
2023-03-08T10:24:14.736Z,4.40
2023-03-08T10:31:39.361Z,4.45
2023-03-08T10:35:38.116Z,3.70
2023-03-08T10:39:21.322Z,4.63
2023-03-08T10:43:06.313Z,4.93
2023-03-08T10:46:50.279Z,3.40
2023-03-08T10:50:36.990Z,3.40
2023-03-08T10:54:18.747Z,4.00
2023-03-08T10:58:01.995Z,3.28
2023-03-08T11:01:53.151Z,3.63
2023-03-08T11:05:34.876Z,3.40
2023-03-08T11:09:31.187Z,3.10
2023-03-08T11:13:47.103Z,3.00
2023-03-08T11:17:35.610Z,3.22
2023-03-08T11:21:46.570Z,1.85
2023-03-08T11:25:36.824Z,2.53
2023-03-08T11:29:41.922Z,2.88
2023-03-08T11:33:45.411Z,2.63
2023-03-08T11:37:48.792Z,2.30
2023-03-08T11:41:57.999Z,2.95
2023-03-08T11:46:04.485Z,2.35
2023-03-08T11:50:05.924Z,2.75
2023-03-08T11:53:53.739Z,3.15
2023-03-08T11:57:40.555Z,2.25
2023-03-08T12:01:46.113Z,1.80
2023-03-08T12:05:34.983Z,2.28
2023-03-08T12:09:24.808Z,2.75
2023-03-08T12:13:24.730Z,2.97
2023-03-08T12:17:20.856Z,3.35
2023-03-08T12:21:22.569Z,2.47
2023-03-08T12:25:13.164Z,3.40
2023-03-08T12:29:00.154Z,2.92
2023-03-08T12:32:43.009Z,2.80
2023-03-08T12:36:43.828Z,2.67
2023-03-08T12:40:52.716Z,3.00
2023-03-08T12:44:34.494Z,2.55
2023-03-08T12:48:28.564Z,3.20
2023-03-08T12:52:19.484Z,2.58
2023-03-08T12:56:21.693Z,2.67
2023-03-08T13:00:24.683Z,3.92
2023-03-08T13:04:39.960Z,3.75
2023-03-08T13:08:42.980Z,2.80
2023-03-08T13:12:50.369Z,3.13
2023-03-08T13:16:41.016Z,3.05
2023-03-08T13:20:48.536Z,2.75
2023-03-08T13:24:36.331Z,3.33
2023-03-08T13:28:20.963Z,3.58
2023-03-08T13:32:12.113Z,3.50
2023-03-08T13:36:01.866Z,2.67
2023-03-08T13:39:58.647Z,2.20
2023-03-08T13:43:40.397Z,2.75
2023-03-08T13:47:29.822Z,2.70
2023-03-08T13:51:17.884Z,4.13
2023-03-08T13:55:02.998Z,3.42
2023-03-08T13:58:50.535Z,3.85
2023-03-08T14:02:32.684Z,2.97
2023-03-08T14:06:24.869Z,2.67
2023-03-08T14:10:13.825Z,2.95
2023-03-08T14:13:57.314Z,3.33
2023-03-08T14:17:41.761Z,3.75
2023-03-08T14:21:29.506Z,3.40
2023-03-08T14:25:26.874Z,2.75
2023-03-08T14:33:15.607Z,3.03
2023-03-08T14:37:01.395Z,3.00
2023-03-08T14:40:51.905Z,3.83
2023-03-08T14:44:33.698Z,3.47
2023-03-08T14:48:30.113Z,2.70
2023-03-08T14:52:21.599Z,3.10
2023-03-08T14:56:09.663Z,3.90
2023-03-08T14:59:52.255Z,2.60
2023-03-08T15:03:34.271Z,3.47
2023-03-08T15:07:22.323Z,2.28
2023-03-08T15:11:04.170Z,3.25
2023-03-08T15:14:46.026Z,2.60
2023-03-08T15:18:27.828Z,2.88
2023-03-08T15:22:13.865Z,2.72
2023-03-08T15:25:57.107Z,2.65
2023-03-08T15:29:38.938Z,2.47
2023-03-08T15:33:22.064Z,3.22
2023-03-08T15:37:04.026Z,3.53
2023-03-08T15:40:45.804Z,3.00
2023-03-08T15:44:27.602Z,3.10
2023-03-08T15:48:15.130Z,3.47
2023-03-08T15:51:56.964Z,3.50
2023-03-08T15:55:39.760Z,2.95
2023-03-08T15:59:21.516Z,3.53
2023-03-08T16:03:03.848Z,3.47
2023-03-08T16:06:45.576Z,3.17
2023-03-08T16:10:29.656Z,3.13
2023-03-08T16:14:17.588Z,4.82
2023-03-08T16:17:59.378Z,5.63
2023-03-08T16:21:41.117Z,3.15
2023-03-08T16:25:23.183Z,3.55
2023-03-08T16:29:04.963Z,5.30
2023-03-08T16:32:47.028Z,5.20
2023-03-08T16:36:29.018Z,4.30
2023-03-08T16:40:11.654Z,4.95
2023-03-08T16:43:55.657Z,4.00
2023-03-08T16:47:37.417Z,4.07
2023-03-08T16:51:21.404Z,4.93
2023-03-08T16:55:03.362Z,5.15
2023-03-08T16:58:45.173Z,5.32
2023-03-08T17:02:26.973Z,5.78
2023-03-08T17:06:11.765Z,3.90
2023-03-08T17:09:53.602Z,3.83
2023-03-08T17:13:35.401Z,3.60
2023-03-08T17:17:17.169Z,4.45
2023-03-08T17:20:58.874Z,2.78
2023-03-08T17:24:40.623Z,4.20
2023-03-08T17:28:22.415Z,4.80
2023-03-08T17:32:04.336Z,5.18
2023-03-08T17:35:46.261Z,3.60
2023-03-08T17:39:28.058Z,4.30
2023-03-08T17:43:09.800Z,6.13
2023-03-08T17:46:51.536Z,5.03
2023-03-08T17:50:36.486Z,5.45
2023-03-08T17:54:19.143Z,6.72
2023-03-08T17:58:00.948Z,4.35
2023-03-08T18:01:43.444Z,6.68
2023-03-08T18:05:25.222Z,6.03
2023-03-08T18:09:10.173Z,4.10
2023-03-08T18:12:51.911Z,4.57
2023-03-08T18:16:34.420Z,5.00
2023-03-08T18:20:18.144Z,5.70
2023-03-08T18:24:00.169Z,5.70
2023-03-08T18:27:41.953Z,4.90
2023-03-08T18:31:26.223Z,6.85
2023-03-08T18:35:08.594Z,6.18
2023-03-08T18:38:50.721Z,6.38
2023-03-08T18:42:33.662Z,7.63
2023-03-08T18:46:15.652Z,8.15
2023-03-08T18:49:57.418Z,7.82
2023-03-08T18:53:39.330Z,7.40
2023-03-08T18:57:21.110Z,7.97
2023-03-08T19:01:08.956Z,8.00
2023-03-08T19:04:51.063Z,9.68
2023-03-08T19:08:32.877Z,8.73
2023-03-08T19:12:15.003Z,8.18
2023-03-08T19:15:56.774Z,8.18
2023-03-08T19:19:38.528Z,10.20
2023-03-08T19:23:20.324Z,10.55
2023-03-08T19:27:03.916Z,11.88
2023-03-08T19:30:45.679Z,9.73
2023-03-08T19:34:29.021Z,10.75
2023-03-08T19:38:10.773Z,12.40
2023-03-08T19:41:57.771Z,13.02
2023-03-08T19:45:39.658Z,12.27
2023-03-08T19:49:24.026Z,14.38
2023-03-08T19:53:05.762Z,12.52
2023-03-08T19:56:47.796Z,11.82
2023-03-08T20:00:29.567Z,13.80
2023-03-08T20:04:12.408Z,13.90
2023-03-08T20:07:54.167Z,13.50
2023-03-08T20:11:36.045Z,15.07
2023-03-08T20:15:17.785Z,18.00
2023-03-08T20:18:59.680Z,17.75
2023-03-08T20:22:42.274Z,16.65
2023-03-08T20:26:26.346Z,19.05
2023-03-08T20:30:12.041Z,18.73
2023-03-08T20:33:54.441Z,15.07
2023-03-08T20:37:36.258Z,16.63
2023-03-08T20:41:20.369Z,13.27
2023-03-08T20:45:02.631Z,15.63
2023-03-08T20:48:45.599Z,15.02
2023-03-08T20:52:27.501Z,17.65
2023-03-08T20:56:14.686Z,14.48
2023-03-08T20:59:56.669Z,17.13
2023-03-08T21:03:38.766Z,21.75
2023-03-08T21:07:20.510Z,19.02
2023-03-08T21:11:02.252Z,17.13
2023-03-08T21:14:44.111Z,19.83
2023-03-08T21:18:25.825Z,17.30
2023-03-08T21:22:07.589Z,17.80
2023-03-08T21:25:51.294Z,18.85
2023-03-08T21:29:33.085Z,19.95
2023-03-08T21:33:14.815Z,23.20
2023-03-08T21:36:56.952Z,20.55
2023-03-08T21:40:41.098Z,19.35
2023-03-08T21:44:23.207Z,21.35
2023-03-08T21:48:05.299Z,21.90
2023-03-08T21:51:47.942Z,20.58
2023-03-08T21:55:29.747Z,17.35
2023-03-08T21:59:12.937Z,18.40
2023-03-08T22:02:54.968Z,18.83
2023-03-08T22:06:36.801Z,18.85
2023-03-08T22:10:20.198Z,18.77
2023-03-08T22:14:02.432Z,19.25
2023-03-08T22:17:44.325Z,16.85
2023-03-08T22:21:27.494Z,19.85
2023-03-08T22:25:09.849Z,20.40
2023-03-08T22:28:53.717Z,19.58
2023-03-08T22:32:36.226Z,18.70
2023-03-08T22:36:19.776Z,18.33
2023-03-08T22:40:01.856Z,20.58
2023-03-08T22:43:44.603Z,20.83
2023-03-08T22:47:26.382Z,18.98
2023-03-08T22:51:11.412Z,19.27
2023-03-08T22:54:53.493Z,20.73
2023-03-08T22:58:35.258Z,21.65
2023-03-08T23:02:16.977Z,22.70
2023-03-08T23:05:58.731Z,21.35
2023-03-08T23:09:40.855Z,22.50
2023-03-08T23:13:33.516Z,21.45
2023-03-08T23:17:16.142Z,21.63
2023-03-08T23:21:05.789Z,22.17
2023-03-08T23:24:47.633Z,18.33
2023-03-08T23:28:29.423Z,17.65
2023-03-08T23:32:11.516Z,15.90
2023-03-08T23:35:53.365Z,15.35
2023-03-08T23:39:35.243Z,16.35
2023-03-08T23:43:16.998Z,17.77
2023-03-08T23:46:58.710Z,15.23
2023-03-08T23:50:40.896Z,14.55
2023-03-08T23:54:22.673Z,16.10
2023-03-08T23:58:04.574Z,16.08
